createdAt,value
2022-08-20T00:02:14.763Z,3.60
2022-08-20T00:04:42.356Z,4.25
2022-08-20T00:07:10.338Z,3.38
2022-08-20T00:09:39.640Z,3.45
2022-08-20T00:12:07.923Z,3.22
2022-08-20T00:14:36.352Z,3.30
2022-08-20T00:17:05.901Z,3.55
2022-08-20T00:19:33.942Z,4.00
2022-08-20T00:22:01.383Z,3.20
2022-08-20T00:24:30.181Z,3.87
2022-08-20T00:26:58.885Z,4.10
2022-08-20T00:29:26.277Z,3.90
2022-08-20T00:31:53.828Z,4.25
2022-08-20T00:34:21.473Z,4.05
2022-08-20T00:36:50.251Z,4.32
2022-08-20T00:39:18.724Z,3.85
2022-08-20T00:41:46.459Z,4.55
2022-08-20T00:44:22.154Z,3.88
2022-08-20T00:46:50.379Z,4.13
2022-08-20T00:49:20.459Z,3.72
2022-08-20T00:51:53.172Z,3.58
2022-08-20T00:54:25.044Z,3.50
2022-08-20T00:56:57.385Z,3.75
2022-08-20T00:59:30.180Z,3.70
2022-08-20T01:01:59.431Z,4.00
2022-08-20T01:04:28.019Z,4.03
2022-08-20T01:06:57.184Z,3.90
2022-08-20T01:09:49.933Z,3.75
2022-08-20T01:12:13.944Z,3.33
2022-08-20T01:14:45.596Z,2.35
2022-08-20T01:17:17.948Z,4.15
2022-08-20T01:19:49.996Z,3.65
2022-08-20T01:22:42.965Z,3.78
2022-08-20T01:25:17.820Z,3.95
2022-08-20T01:27:48.424Z,3.78
2022-08-20T01:30:26.404Z,3.70
2022-08-20T01:32:53.862Z,3.88
2022-08-20T01:35:24.833Z,4.50
2022-08-20T01:37:55.381Z,4.03
2022-08-20T01:40:42.054Z,3.47
2022-08-20T01:43:11.687Z,3.72
2022-08-20T01:45:41.690Z,4.03
2022-08-20T01:48:09.800Z,3.08
2022-08-20T01:50:42.003Z,3.78
2022-08-20T01:53:15.220Z,3.67
2022-08-20T01:55:43.952Z,3.80
2022-08-20T01:58:13.083Z,3.33
2022-08-20T02:00:40.565Z,3.85
2022-08-20T02:03:08.882Z,3.60
2022-08-20T02:05:36.499Z,4.10
2022-08-20T02:08:05.417Z,4.43
2022-08-20T02:10:34.832Z,3.80
2022-08-20T02:13:02.936Z,3.72
2022-08-20T02:15:52.830Z,3.22
2022-08-20T02:18:21.164Z,4.00
2022-08-20T02:20:50.098Z,3.42
2022-08-20T02:23:18.062Z,3.88
2022-08-20T02:25:48.173Z,3.42
2022-08-20T02:28:17.838Z,4.00
2022-08-20T02:30:50.203Z,4.13
2022-08-20T02:33:24.205Z,3.80
2022-08-20T02:35:57.207Z,3.95
2022-08-20T02:38:25.540Z,3.70
2022-08-20T02:40:53.064Z,4.00
2022-08-20T02:43:20.515Z,4.47
2022-08-20T02:45:48.049Z,4.30
2022-08-20T02:48:23.345Z,4.15
2022-08-20T02:50:54.440Z,3.83
2022-08-20T02:53:22.947Z,3.42
2022-08-20T02:55:50.830Z,4.70
2022-08-20T02:58:19.104Z,3.72
2022-08-20T03:00:47.606Z,4.07
2022-08-20T03:03:17.164Z,5.18
2022-08-20T03:08:15.106Z,4.70
2022-08-20T03:10:44.338Z,3.75
2022-08-20T03:13:13.601Z,4.85
2022-08-20T03:15:46.027Z,4.00
2022-08-20T03:18:14.360Z,4.15
2022-08-20T03:20:42.301Z,4.10
2022-08-20T03:23:11.340Z,4.03
2022-08-20T03:25:39.136Z,4.20
2022-08-20T03:28:08.489Z,6.63
2022-08-20T03:30:39.208Z,5.03
2022-08-20T03:33:07.449Z,4.75
2022-08-20T03:35:38.826Z,4.75
2022-08-20T03:38:09.226Z,4.80
2022-08-20T03:40:38.702Z,4.25
2022-08-20T03:43:09.282Z,4.55
2022-08-20T03:45:38.493Z,4.13
2022-08-20T03:48:08.693Z,3.72
2022-08-20T03:50:36.623Z,4.10
2022-08-20T03:53:04.503Z,3.70
2022-08-20T03:55:32.432Z,4.97
2022-08-20T03:58:04.029Z,3.78
2022-08-20T04:00:34.719Z,4.25
2022-08-20T04:03:03.368Z,3.40
2022-08-20T04:05:33.378Z,3.80
2022-08-20T04:08:03.132Z,4.47
2022-08-20T04:10:31.700Z,3.55
2022-08-20T04:13:00.480Z,3.45
2022-08-20T04:15:29.082Z,4.82
2022-08-20T04:17:56.838Z,3.72
2022-08-20T04:20:26.234Z,4.57
2022-08-20T04:22:59.115Z,4.47
2022-08-20T04:25:29.866Z,4.72
2022-08-20T04:27:58.457Z,4.60
2022-08-20T04:30:29.071Z,3.65
2022-08-20T04:32:57.598Z,3.95
2022-08-20T04:35:25.504Z,3.80
2022-08-20T04:38:00.251Z,3.80
2022-08-20T04:40:47.562Z,4.32
2022-08-20T04:43:15.816Z,4.75
2022-08-20T04:45:45.079Z,3.35
2022-08-20T04:50:46.859Z,3.90
2022-08-20T04:53:19.888Z,3.97
2022-08-20T04:55:51.531Z,3.97
2022-08-20T04:58:24.758Z,4.78
2022-08-20T05:00:55.633Z,3.78
2022-08-20T05:03:29.870Z,3.72
2022-08-20T05:06:02.015Z,3.97
2022-08-20T05:08:30.073Z,4.88
2022-08-20T05:11:06.752Z,3.58
2022-08-20T05:13:45.647Z,3.50
2022-08-20T05:16:15.382Z,3.60
2022-08-20T05:18:43.480Z,3.97
2022-08-20T05:21:11.001Z,3.50
2022-08-20T05:23:43.168Z,3.70
2022-08-20T05:26:11.511Z,4.22
2022-08-20T05:28:58.001Z,3.88
2022-08-20T05:31:31.321Z,4.18
2022-08-20T05:34:01.308Z,5.18
2022-08-20T05:36:28.948Z,3.60
2022-08-20T05:38:57.857Z,3.70
2022-08-20T05:41:29.143Z,4.05
2022-08-20T05:43:59.942Z,3.70
2022-08-20T05:46:29.344Z,3.53
2022-08-20T05:48:59.765Z,3.65
2022-08-20T05:51:28.196Z,4.60
2022-08-20T05:53:57.418Z,3.83
2022-08-20T05:56:30.953Z,3.88
2022-08-20T05:59:02.445Z,4.05
2022-08-20T06:01:31.943Z,4.28
2022-08-20T06:06:47.396Z,4.47
2022-08-20T06:09:31.067Z,4.22
2022-08-20T06:12:00.103Z,5.25
2022-08-20T06:14:28.146Z,5.15
2022-08-20T06:17:03.271Z,4.68
2022-08-20T06:19:33.304Z,5.40
2022-08-20T06:22:02.238Z,5.37
2022-08-20T06:24:36.179Z,5.25
2022-08-20T06:27:05.771Z,5.45
2022-08-20T06:29:34.278Z,5.30
2022-08-20T06:32:03.497Z,5.70
2022-08-20T06:34:31.059Z,5.80
2022-08-20T06:36:59.283Z,5.13
2022-08-20T06:39:31.266Z,5.03
2022-08-20T06:41:59.853Z,5.72
2022-08-20T06:44:28.554Z,5.30
2022-08-20T06:47:05.466Z,5.30
2022-08-20T06:49:36.083Z,5.35
2022-08-20T06:52:04.701Z,6.28
2022-08-20T06:54:34.492Z,5.17
2022-08-20T06:57:02.753Z,5.55
2022-08-20T06:59:30.483Z,5.82
2022-08-20T07:01:57.890Z,5.72
2022-08-20T07:04:27.222Z,5.95
2022-08-20T07:06:57.914Z,6.10
2022-08-20T07:09:28.350Z,5.57
2022-08-20T07:11:56.294Z,6.07
2022-08-20T07:14:23.748Z,6.30
2022-08-20T07:16:51.145Z,5.20
2022-08-20T07:19:18.628Z,5.50
2022-08-20T07:21:48.636Z,5.10
2022-08-20T07:24:16.195Z,5.38
2022-08-20T07:26:45.384Z,6.40
2022-08-20T07:29:12.915Z,5.57
2022-08-20T07:31:59.143Z,5.90
2022-08-20T07:34:26.853Z,5.90
2022-08-20T07:36:59.449Z,5.82
2022-08-20T07:39:28.462Z,5.03
2022-08-20T07:42:03.418Z,4.93
2022-08-20T07:44:31.465Z,4.45
2022-08-20T07:46:59.272Z,5.22
2022-08-20T07:49:26.744Z,4.55
2022-08-20T07:51:56.664Z,5.70
2022-08-20T07:54:24.398Z,5.30
2022-08-20T07:56:54.289Z,5.22
2022-08-20T07:59:22.677Z,5.90
2022-08-20T08:01:51.128Z,4.57
2022-08-20T08:04:20.022Z,4.10
2022-08-20T08:06:47.907Z,4.03
2022-08-20T08:09:17.442Z,4.30
2022-08-20T08:11:50.646Z,3.45
2022-08-20T08:14:23.681Z,3.70
2022-08-20T08:16:53.165Z,3.60
2022-08-20T08:19:21.840Z,3.70
2022-08-20T08:21:49.857Z,3.70
2022-08-20T08:24:26.533Z,3.88
2022-08-20T08:26:58.321Z,3.57
2022-08-20T08:29:27.236Z,3.55
2022-08-20T08:31:56.877Z,3.10
2022-08-20T08:34:25.543Z,3.22
2022-08-20T08:36:54.126Z,3.47
2022-08-20T08:39:31.759Z,3.15
2022-08-20T08:42:05.472Z,3.10
2022-08-20T08:44:38.778Z,3.35
2022-08-20T08:47:18.263Z,3.20
2022-08-20T08:49:47.870Z,2.93
2022-08-20T08:52:21.198Z,2.95
2022-08-20T08:54:58.586Z,3.45
2022-08-20T08:57:26.654Z,2.85
2022-08-20T09:00:04.369Z,3.20
2022-08-20T09:02:34.459Z,3.05
2022-08-20T09:05:13.823Z,3.22
2022-08-20T09:07:46.316Z,3.13
2022-08-20T09:10:17.611Z,2.92
2022-08-20T09:12:52.145Z,2.80
2022-08-20T09:15:44.344Z,3.20
2022-08-20T09:18:12.086Z,3.15
2022-08-20T09:20:39.837Z,2.70
2022-08-20T09:23:07.603Z,2.92
2022-08-20T09:25:36.900Z,2.90
2022-08-20T09:30:36.734Z,2.63
2022-08-20T09:33:08.899Z,3.60
2022-08-20T09:35:38.759Z,2.80
2022-08-20T09:38:06.215Z,2.63
2022-08-20T09:40:34.063Z,3.10
2022-08-20T09:43:05.694Z,2.80
2022-08-20T09:45:33.168Z,3.25
2022-08-20T09:48:00.666Z,3.63
2022-08-20T09:50:31.503Z,3.00
2022-08-20T09:53:01.130Z,3.05
2022-08-20T09:55:35.040Z,3.72
2022-08-20T09:58:08.412Z,3.67
2022-08-20T10:00:46.061Z,2.88
2022-08-20T10:03:30.157Z,2.97
2022-08-20T10:05:58.205Z,3.03
2022-08-20T10:08:26.914Z,3.37
2022-08-20T10:10:56.677Z,3.30
2022-08-20T10:13:25.576Z,2.50
2022-08-20T10:15:53.099Z,2.67
2022-08-20T10:18:21.064Z,2.55
2022-08-20T10:20:49.501Z,2.50
2022-08-20T10:23:17.156Z,3.17
2022-08-20T10:25:44.415Z,2.53
2022-08-20T10:28:11.733Z,2.38
2022-08-20T10:30:41.733Z,3.03
2022-08-20T10:33:08.988Z,2.67
2022-08-20T10:35:36.602Z,3.22
2022-08-20T10:38:03.928Z,2.67
2022-08-20T10:40:31.508Z,2.35
2022-08-20T10:42:59.183Z,3.25
2022-08-20T10:45:26.575Z,2.80
2022-08-20T10:48:01.429Z,2.83
2022-08-20T10:50:30.445Z,3.00
2022-08-20T10:52:59.602Z,2.95
2022-08-20T10:55:27.084Z,2.53
2022-08-20T10:57:55.127Z,2.88
2022-08-20T11:00:23.224Z,3.05
2022-08-20T11:02:53.680Z,2.65
2022-08-20T11:05:23.250Z,3.42
2022-08-20T11:07:55.852Z,2.75
2022-08-20T11:10:26.015Z,3.20
2022-08-20T11:12:53.509Z,3.13
2022-08-20T11:15:20.922Z,3.53
2022-08-20T11:18:00.461Z,3.58
2022-08-20T11:20:32.099Z,3.05
2022-08-20T11:22:59.412Z,2.38
2022-08-20T11:25:29.421Z,2.72
2022-08-20T11:27:57.926Z,2.75
2022-08-20T11:30:28.540Z,3.85
2022-08-20T11:32:56.671Z,4.28
2022-08-20T11:35:48.714Z,2.78
2022-08-20T11:38:17.374Z,2.60
2022-08-20T11:40:47.053Z,2.72
2022-08-20T11:43:16.302Z,2.70
2022-08-20T11:45:46.318Z,2.88
2022-08-20T11:50:42.038Z,3.47
2022-08-20T11:53:10.202Z,2.30
2022-08-20T11:55:41.602Z,2.97
2022-08-20T11:58:10.167Z,3.35
2022-08-20T12:00:37.857Z,2.33
2022-08-20T12:03:09.535Z,1.90
2022-08-20T12:05:40.046Z,2.50
2022-08-20T12:08:08.573Z,2.33
2022-08-20T12:10:39.214Z,2.55
2022-08-20T12:13:07.697Z,3.08
2022-08-20T12:15:37.122Z,2.83
2022-08-20T12:18:07.467Z,3.28
2022-08-20T12:20:43.271Z,3.17
2022-08-20T12:23:10.624Z,3.30
2022-08-20T12:25:40.280Z,3.90
2022-08-20T12:28:07.925Z,3.75
2022-08-20T12:30:36.009Z,3.38
2022-08-20T12:33:06.248Z,3.15
2022-08-20T12:35:34.113Z,3.05
2022-08-20T12:38:04.384Z,3.08
2022-08-20T12:40:34.504Z,3.55
2022-08-20T12:43:39.703Z,3.28
2022-08-20T12:46:13.279Z,2.72
2022-08-20T12:48:40.795Z,3.22
2022-08-20T12:51:08.231Z,2.80
2022-08-20T12:53:36.471Z,2.90
2022-08-20T12:56:04.667Z,2.78
2022-08-20T12:58:35.020Z,3.25
2022-08-20T13:01:02.996Z,3.78
2022-08-20T13:03:32.111Z,2.97
2022-08-20T13:06:01.384Z,3.72
2022-08-20T13:08:30.015Z,3.10
2022-08-20T13:10:57.775Z,2.80
2022-08-20T13:13:25.538Z,2.95
2022-08-20T13:15:54.536Z,3.55
2022-08-20T13:18:21.918Z,2.90
2022-08-20T13:20:49.553Z,3.47
2022-08-20T13:23:17.978Z,2.78
2022-08-20T13:25:46.696Z,2.42
2022-08-20T13:28:14.312Z,2.50
2022-08-20T13:30:41.985Z,2.95
2022-08-20T13:33:11.427Z,2.47
2022-08-20T13:35:39.647Z,2.72
2022-08-20T13:38:07.380Z,3.38
2022-08-20T13:40:37.276Z,3.80
2022-08-20T13:43:07.342Z,3.13
2022-08-20T13:45:35.780Z,3.08
2022-08-20T13:48:04.256Z,3.35
2022-08-20T13:50:36.021Z,2.58
2022-08-20T13:53:03.528Z,2.25
2022-08-20T13:55:31.127Z,2.42
2022-08-20T13:58:05.706Z,3.08
2022-08-20T14:00:34.554Z,3.33
2022-08-20T14:05:31.705Z,3.03
2022-08-20T14:08:07.725Z,2.60
2022-08-20T14:10:35.921Z,3.20
2022-08-20T14:13:04.045Z,4.07
2022-08-20T14:15:31.343Z,3.37
2022-08-20T14:17:58.921Z,3.13
2022-08-20T14:20:29.233Z,3.10
2022-08-20T14:23:00.469Z,2.92
2022-08-20T14:25:31.426Z,3.30
2022-08-20T14:27:59.453Z,3.25
2022-08-20T14:30:29.948Z,2.90
2022-08-20T14:32:58.111Z,2.90
2022-08-20T14:35:25.785Z,3.03
2022-08-20T14:37:55.540Z,2.88
2022-08-20T14:40:24.822Z,3.40
2022-08-20T14:42:54.130Z,3.20
2022-08-20T14:45:22.541Z,2.90
2022-08-20T14:47:53.859Z,2.67
2022-08-20T14:50:25.445Z,3.15
2022-08-20T14:52:53.165Z,2.55
2022-08-20T14:55:23.902Z,2.72
2022-08-20T14:57:51.489Z,2.38
2022-08-20T15:00:23.116Z,2.83
2022-08-20T15:02:50.665Z,2.13
2022-08-20T15:05:18.408Z,2.20
2022-08-20T15:07:48.419Z,2.03
2022-08-20T15:10:21.057Z,2.45
2022-08-20T15:12:48.474Z,2.30
2022-08-20T15:15:17.072Z,2.60
2022-08-20T15:17:48.582Z,2.00
2022-08-20T15:20:20.277Z,2.22
2022-08-20T15:22:49.565Z,2.70
2022-08-20T15:25:19.527Z,2.67
2022-08-20T15:27:47.563Z,2.05
2022-08-20T15:30:19.104Z,2.40
2022-08-20T15:32:52.729Z,2.53
2022-08-20T15:35:29.512Z,2.55
2022-08-20T15:37:59.180Z,3.22
2022-08-20T15:40:29.110Z,1.92
2022-08-20T15:42:57.299Z,2.40
2022-08-20T15:45:25.123Z,2.10
2022-08-20T15:48:00.014Z,2.00
2022-08-20T15:50:43.439Z,2.78
2022-08-20T15:53:16.525Z,2.55
2022-08-20T15:55:51.081Z,3.22
2022-08-20T15:58:27.530Z,2.75
2022-08-20T16:01:04.960Z,2.95
2022-08-20T16:04:10.359Z,2.95
2022-08-20T16:06:38.940Z,2.88
2022-08-20T16:09:31.246Z,3.45
2022-08-20T16:12:07.615Z,3.60
2022-08-20T16:14:38.418Z,3.65
2022-08-20T16:17:09.309Z,4.20
2022-08-20T16:19:51.239Z,4.00
2022-08-20T16:22:20.273Z,3.67
2022-08-20T16:24:48.216Z,3.60
2022-08-20T16:27:27.703Z,3.78
2022-08-20T16:30:02.023Z,4.47
2022-08-20T16:32:41.062Z,3.33
2022-08-20T16:35:29.857Z,3.42
2022-08-20T16:40:34.492Z,2.80
2022-08-20T16:43:05.662Z,3.35
2022-08-20T16:45:39.657Z,3.15
2022-08-20T16:48:11.615Z,3.03
2022-08-20T16:50:53.014Z,3.22
2022-08-20T16:53:22.722Z,3.85
2022-08-20T16:55:50.028Z,3.28
2022-08-20T16:58:17.470Z,2.95
2022-08-20T17:00:45.705Z,3.10
2022-08-20T17:03:31.223Z,3.10
2022-08-20T17:06:01.246Z,3.33
2022-08-20T17:11:00.872Z,3.03
2022-08-20T17:13:30.529Z,3.55
2022-08-20T17:16:00.660Z,3.80
2022-08-20T17:18:31.806Z,4.05
2022-08-20T17:21:06.963Z,3.42
2022-08-20T17:23:54.719Z,3.60
2022-08-20T17:26:29.989Z,3.15
2022-08-20T17:29:01.377Z,4.40
2022-08-20T17:31:38.661Z,3.40
2022-08-20T17:34:15.107Z,4.30
2022-08-20T17:36:51.975Z,4.40
2022-08-20T17:39:21.189Z,4.35
2022-08-20T17:41:50.604Z,4.40
2022-08-20T17:46:51.818Z,4.82
2022-08-20T17:49:25.979Z,3.78
2022-08-20T17:51:57.061Z,4.95
2022-08-20T17:54:30.021Z,4.40
2022-08-20T17:57:01.769Z,5.70
2022-08-20T18:00:01.377Z,4.65
2022-08-20T18:02:22.843Z,5.40
2022-08-20T18:04:52.981Z,4.80
2022-08-20T18:07:26.244Z,5.15
2022-08-20T18:09:58.460Z,5.10
2022-08-20T18:12:34.085Z,4.65
2022-08-20T18:15:09.648Z,4.10
2022-08-20T18:17:54.731Z,4.50
2022-08-20T18:20:49.474Z,4.68
2022-08-20T18:23:21.615Z,4.32
2022-08-20T18:25:59.596Z,4.55
2022-08-20T18:28:38.219Z,6.25
2022-08-20T18:31:09.159Z,5.43
2022-08-20T18:33:39.749Z,6.43
2022-08-20T18:36:11.526Z,6.40
2022-08-20T18:38:42.781Z,5.22
2022-08-20T18:41:14.981Z,5.78
2022-08-20T18:43:43.641Z,5.65
2022-08-20T18:46:18.877Z,5.30
2022-08-20T18:48:58.467Z,6.38
2022-08-20T18:51:36.203Z,6.20
2022-08-20T18:54:05.302Z,5.97
2022-08-20T18:56:38.311Z,5.95
2022-08-20T18:59:10.829Z,5.15
2022-08-20T19:01:39.089Z,4.85
2022-08-20T19:04:17.842Z,4.15
2022-08-20T19:06:54.348Z,4.90
2022-08-20T19:09:43.470Z,4.22
2022-08-20T19:12:41.548Z,3.97
2022-08-20T19:15:15.074Z,3.63
2022-08-20T19:17:52.056Z,3.40
2022-08-20T19:20:22.452Z,3.78
2022-08-20T19:22:52.975Z,3.70
2022-08-20T19:25:26.338Z,3.92
2022-08-20T19:27:55.964Z,4.60
2022-08-20T19:30:36.508Z,4.93
2022-08-20T19:33:05.177Z,5.95
2022-08-20T19:35:32.896Z,6.73
2022-08-20T19:38:02.712Z,5.22
2022-08-20T19:40:39.229Z,5.30
2022-08-20T19:43:14.500Z,4.80
2022-08-20T19:45:46.053Z,5.15
2022-08-20T19:48:31.419Z,5.00
2022-08-20T19:51:07.845Z,4.90
2022-08-20T19:53:37.922Z,4.85
2022-08-20T19:56:10.862Z,4.63
2022-08-20T19:58:41.431Z,5.30
2022-08-20T20:01:15.490Z,3.35
2022-08-20T20:03:57.450Z,5.25
2022-08-20T20:06:27.054Z,4.20
2022-08-20T20:09:00.668Z,5.05
2022-08-20T20:11:36.424Z,4.05
2022-08-20T20:14:09.197Z,4.05
2022-08-20T20:16:37.576Z,3.40
2022-08-20T20:19:25.185Z,3.67
2022-08-20T20:22:05.745Z,2.80
2022-08-20T20:24:42.742Z,3.08
2022-08-20T20:27:20.220Z,3.00
2022-08-20T20:29:50.009Z,3.03
2022-08-20T20:32:21.291Z,3.38
2022-08-20T20:34:55.370Z,3.53
2022-08-20T20:37:49.922Z,4.72
2022-08-20T20:40:26.381Z,4.03
2022-08-20T20:43:01.677Z,3.25
2022-08-20T20:45:33.509Z,3.38
2022-08-20T20:48:15.329Z,4.30
2022-08-20T20:50:43.016Z,4.20
2022-08-20T20:53:11.555Z,3.53
2022-08-20T20:55:39.113Z,2.90
2022-08-20T20:58:08.321Z,3.38
2022-08-20T21:00:36.001Z,2.95
2022-08-20T21:03:04.200Z,3.00
2022-08-20T21:05:32.550Z,3.23
2022-08-20T21:08:01.467Z,3.15
2022-08-20T21:10:32.914Z,2.95
2022-08-20T21:13:03.972Z,3.08
2022-08-20T21:15:35.940Z,3.00
2022-08-20T21:18:05.556Z,3.40
2022-08-20T21:20:34.752Z,3.67
2022-08-20T21:23:02.305Z,2.50
2022-08-20T21:25:33.016Z,2.80
2022-08-20T21:28:01.098Z,3.08
2022-08-20T21:30:29.203Z,2.70
2022-08-20T21:32:58.262Z,2.83
2022-08-20T21:35:25.958Z,3.13
2022-08-20T21:37:53.894Z,2.55
2022-08-20T21:40:22.110Z,2.88
2022-08-20T21:42:51.292Z,2.85
2022-08-20T21:45:19.553Z,2.75
2022-08-20T21:47:48.860Z,2.85
2022-08-20T21:52:55.546Z,3.47
2022-08-20T21:55:28.420Z,2.70
2022-08-20T21:57:55.911Z,2.88
2022-08-20T22:00:46.992Z,3.22
2022-08-20T22:03:15.483Z,3.03
2022-08-20T22:05:44.908Z,2.85
2022-08-20T22:08:14.368Z,3.28
2022-08-20T22:10:42.752Z,2.97
2022-08-20T22:13:10.806Z,2.63
2022-08-20T22:15:41.178Z,2.65
2022-08-20T22:18:09.188Z,3.15
2022-08-20T22:20:37.210Z,2.78
2022-08-20T22:23:06.650Z,2.60
2022-08-20T22:28:02.076Z,2.60
2022-08-20T22:30:38.298Z,2.80
2022-08-20T22:33:12.741Z,3.97
2022-08-20T22:35:46.827Z,3.65
2022-08-20T22:38:16.663Z,3.22
2022-08-20T22:40:44.990Z,3.60
2022-08-20T22:43:13.470Z,3.45
2022-08-20T22:45:43.773Z,4.10
2022-08-20T22:48:23.850Z,2.72
2022-08-20T22:50:52.329Z,2.83
2022-08-20T22:53:24.954Z,2.97
2022-08-20T22:55:52.773Z,3.13
2022-08-20T22:58:20.770Z,3.20
2022-08-20T23:00:59.727Z,2.95
2022-08-20T23:03:32.188Z,4.03
2022-08-20T23:06:09.985Z,2.67
2022-08-20T23:08:39.478Z,2.78
2022-08-20T23:11:07.990Z,2.72
2022-08-20T23:13:36.849Z,2.90
2022-08-20T23:16:06.381Z,3.92
2022-08-20T23:21:01.137Z,3.92
2022-08-20T23:23:28.499Z,3.35
2022-08-20T23:25:57.486Z,3.85
2022-08-20T23:28:25.904Z,4.13
2022-08-20T23:30:53.606Z,4.22
2022-08-20T23:33:21.183Z,3.50
2022-08-20T23:35:48.867Z,4.38
2022-08-20T23:38:16.826Z,4.00
2022-08-20T23:40:44.727Z,3.55
2022-08-20T23:43:13.783Z,3.38
2022-08-20T23:45:41.803Z,3.85
2022-08-20T23:48:09.111Z,3.65
2022-08-20T23:50:36.741Z,3.78
2022-08-20T23:53:05.243Z,5.43
2022-08-20T23:55:35.837Z,3.72
2022-08-20T23:58:03.372Z,4.00
